sensor_id;sensor_type;location;lat;lon;timestamp;P1;durP1;ratioP1;P2;durP2;ratioP2
5937;SDS011;2994;51.220;4.412;2022-07-19T00:01:24;5.77;;;5.27;;
5937;SDS011;2994;51.220;4.412;2022-07-19T00:03:51;5.60;;;5.10;;
5937;SDS011;2994;51.220;4.412;2022-07-19T00:06:16;6.60;;;6.00;;
5937;SDS011;2994;51.220;4.412;2022-07-19T00:08:41;9.27;;;5.60;;
5937;SDS011;2994;51.220;4.412;2022-07-19T00:11:07;5.83;;;5.20;;
5937;SDS011;2994;51.220;4.412;2022-07-19T00:13:32;6.43;;;5.80;;
5937;SDS011;2994;51.220;4.412;2022-07-19T00:15:58;6.53;;;5.50;;
5937;SDS011;2994;51.220;4.412;2022-07-19T00:18:23;6.40;;;5.80;;
5937;SDS011;2994;51.220;4.412;2022-07-19T00:20:49;5.70;;;5.30;;
5937;SDS011;2994;51.220;4.412;2022-07-19T00:23:14;7.07;;;4.67;;
5937;SDS011;2994;51.220;4.412;2022-07-19T00:25:40;7.33;;;5.93;;
5937;SDS011;2994;51.220;4.412;2022-07-19T00:28:05;6.10;;;5.07;;
5937;SDS011;2994;51.220;4.412;2022-07-19T00:30:31;5.77;;;5.10;;
5937;SDS011;2994;51.220;4.412;2022-07-19T00:32:56;5.37;;;4.97;;
5937;SDS011;2994;51.220;4.412;2022-07-19T00:35:22;4.93;;;4.43;;
5937;SDS011;2994;51.220;4.412;2022-07-19T00:37:47;6.33;;;4.73;;
5937;SDS011;2994;51.220;4.412;2022-07-19T00:40:13;4.73;;;4.33;;
5937;SDS011;2994;51.220;4.412;2022-07-19T00:42:39;5.83;;;4.60;;
5937;SDS011;2994;51.220;4.412;2022-07-19T00:45:05;5.13;;;4.53;;
5937;SDS011;2994;51.220;4.412;2022-07-19T00:47:31;4.77;;;4.33;;
5937;SDS011;2994;51.220;4.412;2022-07-19T00:49:57;4.10;;;3.80;;
5937;SDS011;2994;51.220;4.412;2022-07-19T00:52:22;5.37;;;4.87;;
5937;SDS011;2994;51.220;4.412;2022-07-19T00:54:51;4.93;;;4.40;;
5937;SDS011;2994;51.220;4.412;2022-07-19T00:57:18;5.30;;;4.80;;
5937;SDS011;2994;51.220;4.412;2022-07-19T00:59:44;5.90;;;5.30;;
5937;SDS011;2994;51.220;4.412;2022-07-19T01:02:12;7.83;;;5.50;;
5937;SDS011;2994;51.220;4.412;2022-07-19T01:04:38;5.30;;;4.90;;
5937;SDS011;2994;51.220;4.412;2022-07-19T01:07:03;5.47;;;4.97;;
5937;SDS011;2994;51.220;4.412;2022-07-19T01:09:29;5.13;;;4.63;;
5937;SDS011;2994;51.220;4.412;2022-07-19T01:11:55;5.70;;;4.50;;
5937;SDS011;2994;51.220;4.412;2022-07-19T01:14:21;5.47;;;5.00;;
5937;SDS011;2994;51.220;4.412;2022-07-19T01:16:47;5.13;;;4.73;;
5937;SDS011;2994;51.220;4.412;2022-07-19T01:19:13;5.60;;;5.10;;
5937;SDS011;2994;51.220;4.412;2022-07-19T01:21:39;6.03;;;5.40;;
5937;SDS011;2994;51.220;4.412;2022-07-19T01:24:05;5.17;;;4.67;;
5937;SDS011;2994;51.220;4.412;2022-07-19T01:26:31;4.80;;;4.33;;
5937;SDS011;2994;51.220;4.412;2022-07-19T01:28:56;5.23;;;4.70;;
5937;SDS011;2994;51.220;4.412;2022-07-19T01:31:22;8.57;;;5.60;;
5937;SDS011;2994;51.220;4.412;2022-07-19T01:33:47;6.10;;;5.10;;
5937;SDS011;2994;51.220;4.412;2022-07-19T01:36:13;6.57;;;5.87;;
5937;SDS011;2994;51.220;4.412;2022-07-19T01:38:38;5.27;;;4.87;;
5937;SDS011;2994;51.220;4.412;2022-07-19T01:41:05;5.73;;;5.23;;
5937;SDS011;2994;51.220;4.412;2022-07-19T01:43:31;8.20;;;5.13;;
5937;SDS011;2994;51.220;4.412;2022-07-19T01:45:57;6.53;;;6.03;;
5937;SDS011;2994;51.220;4.412;2022-07-19T01:48:23;5.67;;;5.17;;
5937;SDS011;2994;51.220;4.412;2022-07-19T01:50:49;5.93;;;5.30;;
5937;SDS011;2994;51.220;4.412;2022-07-19T01:53:15;5.40;;;5.00;;
5937;SDS011;2994;51.220;4.412;2022-07-19T01:55:40;6.60;;;6.00;;
5937;SDS011;2994;51.220;4.412;2022-07-19T01:58:06;5.93;;;5.40;;
5937;SDS011;2994;51.220;4.412;2022-07-19T02:00:31;5.73;;;5.20;;
5937;SDS011;2994;51.220;4.412;2022-07-19T02:02:57;6.40;;;5.80;;
5937;SDS011;2994;51.220;4.412;2022-07-19T02:05:23;6.27;;;5.47;;
5937;SDS011;2994;51.220;4.412;2022-07-19T02:07:48;6.07;;;5.57;;
5937;SDS011;2994;51.220;4.412;2022-07-19T02:10:14;6.53;;;5.93;;
5937;SDS011;2994;51.220;4.412;2022-07-19T02:12:40;6.33;;;5.80;;
5937;SDS011;2994;51.220;4.412;2022-07-19T02:15:06;7.13;;;6.27;;
5937;SDS011;2994;51.220;4.412;2022-07-19T02:17:32;6.60;;;5.90;;
5937;SDS011;2994;51.220;4.412;2022-07-19T02:19:58;6.47;;;5.87;;
5937;SDS011;2994;51.220;4.412;2022-07-19T02:22:23;5.40;;;5.00;;
5937;SDS011;2994;51.220;4.412;2022-07-19T02:24:49;6.40;;;5.80;;
5937;SDS011;2994;51.220;4.412;2022-07-19T02:27:14;5.80;;;5.30;;
5937;SDS011;2994;51.220;4.412;2022-07-19T02:29:40;6.00;;;5.50;;
5937;SDS011;2994;51.220;4.412;2022-07-19T02:32:05;6.00;;;5.40;;
5937;SDS011;2994;51.220;4.412;2022-07-19T02:34:31;5.83;;;5.10;;
5937;SDS011;2994;51.220;4.412;2022-07-19T02:36:57;6.83;;;5.90;;
5937;SDS011;2994;51.220;4.412;2022-07-19T02:39:22;5.53;;;5.13;;
5937;SDS011;2994;51.220;4.412;2022-07-19T02:41:47;5.90;;;5.40;;
5937;SDS011;2994;51.220;4.412;2022-07-19T02:44:13;5.57;;;5.10;;
5937;SDS011;2994;51.220;4.412;2022-07-19T02:46:38;6.47;;;5.87;;
5937;SDS011;2994;51.220;4.412;2022-07-19T02:49:04;5.93;;;5.30;;
5937;SDS011;2994;51.220;4.412;2022-07-19T02:51:29;7.00;;;5.77;;
5937;SDS011;2994;51.220;4.412;2022-07-19T02:53:55;6.13;;;5.67;;
5937;SDS011;2994;51.220;4.412;2022-07-19T02:56:20;6.07;;;5.07;;
5937;SDS011;2994;51.220;4.412;2022-07-19T02:58:45;6.10;;;5.60;;
5937;SDS011;2994;51.220;4.412;2022-07-19T03:01:11;6.23;;;5.63;;
5937;SDS011;2994;51.220;4.412;2022-07-19T03:03:36;6.13;;;5.63;;
5937;SDS011;2994;51.220;4.412;2022-07-19T03:06:12;6.63;;;6.13;;
5937;SDS011;2994;51.220;4.412;2022-07-19T03:08:39;5.67;;;5.13;;
5937;SDS011;2994;51.220;4.412;2022-07-19T03:11:05;6.47;;;5.97;;
5937;SDS011;2994;51.220;4.412;2022-07-19T03:13:30;6.10;;;5.57;;
5937;SDS011;2994;51.220;4.412;2022-07-19T03:15:56;6.13;;;5.63;;
5937;SDS011;2994;51.220;4.412;2022-07-19T03:18:21;5.60;;;5.20;;
5937;SDS011;2994;51.220;4.412;2022-07-19T03:20:46;5.83;;;5.23;;
5937;SDS011;2994;51.220;4.412;2022-07-19T03:23:12;6.10;;;5.50;;
5937;SDS011;2994;51.220;4.412;2022-07-19T03:25:37;7.03;;;6.43;;
5937;SDS011;2994;51.220;4.412;2022-07-19T03:28:03;6.17;;;5.67;;
5937;SDS011;2994;51.220;4.412;2022-07-19T03:30:29;5.70;;;5.30;;
5937;SDS011;2994;51.220;4.412;2022-07-19T03:32:56;6.80;;;6.20;;
5937;SDS011;2994;51.220;4.412;2022-07-19T03:35:22;6.43;;;5.83;;
5937;SDS011;2994;51.220;4.412;2022-07-19T03:37:48;6.20;;;5.60;;
5937;SDS011;2994;51.220;4.412;2022-07-19T03:40:13;6.80;;;5.67;;
5937;SDS011;2994;51.220;4.412;2022-07-19T03:42:39;5.90;;;5.33;;
5937;SDS011;2994;51.220;4.412;2022-07-19T03:45:04;6.03;;;5.53;;
5937;SDS011;2994;51.220;4.412;2022-07-19T03:47:30;6.60;;;6.00;;
5937;SDS011;2994;51.220;4.412;2022-07-19T03:49:56;6.10;;;5.60;;
5937;SDS011;2994;51.220;4.412;2022-07-19T03:52:22;6.10;;;5.67;;
5937;SDS011;2994;51.220;4.412;2022-07-19T03:54:48;6.50;;;5.90;;
5937;SDS011;2994;51.220;4.412;2022-07-19T03:57:13;6.13;;;5.50;;
5937;SDS011;2994;51.220;4.412;2022-07-19T03:59:39;6.83;;;6.03;;
5937;SDS011;2994;51.220;4.412;2022-07-19T04:02:04;9.10;;;6.00;;
5937;SDS011;2994;51.220;4.412;2022-07-19T04:04:30;6.60;;;6.00;;
5937;SDS011;2994;51.220;4.412;2022-07-19T04:06:55;6.97;;;6.40;;
5937;SDS011;2994;51.220;4.412;2022-07-19T04:09:21;7.43;;;6.73;;
5937;SDS011;2994;51.220;4.412;2022-07-19T04:11:46;6.37;;;5.87;;
5937;SDS011;2994;51.220;4.412;2022-07-19T04:14:11;6.33;;;5.73;;
5937;SDS011;2994;51.220;4.412;2022-07-19T04:16:37;6.37;;;5.80;;
5937;SDS011;2994;51.220;4.412;2022-07-19T04:19:02;6.87;;;6.30;;
5937;SDS011;2994;51.220;4.412;2022-07-19T04:21:28;6.07;;;5.53;;
5937;SDS011;2994;51.220;4.412;2022-07-19T04:23:53;6.93;;;6.33;;
5937;SDS011;2994;51.220;4.412;2022-07-19T04:26:19;6.70;;;6.00;;
5937;SDS011;2994;51.220;4.412;2022-07-19T04:28:44;6.77;;;6.00;;
5937;SDS011;2994;51.220;4.412;2022-07-19T04:31:09;8.47;;;7.67;;
5937;SDS011;2994;51.220;4.412;2022-07-19T04:33:35;16.23;;;13.20;;
5937;SDS011;2994;51.220;4.412;2022-07-19T04:36:00;30.40;;;27.40;;
5937;SDS011;2994;51.220;4.412;2022-07-19T04:38:26;50.20;;;44.47;;
5937;SDS011;2994;51.220;4.412;2022-07-19T04:40:51;33.73;;;27.73;;
5937;SDS011;2994;51.220;4.412;2022-07-19T04:43:17;21.33;;;17.83;;
5937;SDS011;2994;51.220;4.412;2022-07-19T04:45:42;15.80;;;13.30;;
5937;SDS011;2994;51.220;4.412;2022-07-19T04:48:09;13.93;;;12.33;;
5937;SDS011;2994;51.220;4.412;2022-07-19T04:50:35;13.53;;;10.20;;
5937;SDS011;2994;51.220;4.412;2022-07-19T04:53:01;8.90;;;8.07;;
5937;SDS011;2994;51.220;4.412;2022-07-19T04:55:27;8.40;;;7.33;;
5937;SDS011;2994;51.220;4.412;2022-07-19T04:57:52;11.93;;;7.80;;
5937;SDS011;2994;51.220;4.412;2022-07-19T05:00:17;7.67;;;6.93;;
5937;SDS011;2994;51.220;4.412;2022-07-19T05:02:43;7.27;;;6.63;;
5937;SDS011;2994;51.220;4.412;2022-07-19T05:05:09;6.83;;;6.23;;
5937;SDS011;2994;51.220;4.412;2022-07-19T05:07:35;7.00;;;5.80;;
5937;SDS011;2994;51.220;4.412;2022-07-19T05:10:00;9.27;;;6.17;;
5937;SDS011;2994;51.220;4.412;2022-07-19T05:12:26;7.40;;;5.90;;
5937;SDS011;2994;51.220;4.412;2022-07-19T05:14:51;8.33;;;6.70;;
5937;SDS011;2994;51.220;4.412;2022-07-19T05:17:17;7.47;;;6.40;;
5937;SDS011;2994;51.220;4.412;2022-07-19T05:19:42;7.80;;;6.67;;
5937;SDS011;2994;51.220;4.412;2022-07-19T05:22:08;6.17;;;5.27;;
5937;SDS011;2994;51.220;4.412;2022-07-19T05:24:33;7.40;;;5.73;;
5937;SDS011;2994;51.220;4.412;2022-07-19T05:26:59;8.03;;;6.50;;
5937;SDS011;2994;51.220;4.412;2022-07-19T05:29:26;6.97;;;6.27;;
5937;SDS011;2994;51.220;4.412;2022-07-19T05:31:52;6.13;;;5.63;;
5937;SDS011;2994;51.220;4.412;2022-07-19T05:34:17;7.10;;;6.40;;
5937;SDS011;2994;51.220;4.412;2022-07-19T05:36:43;7.27;;;6.67;;
5937;SDS011;2994;51.220;4.412;2022-07-19T05:39:08;6.27;;;5.77;;
5937;SDS011;2994;51.220;4.412;2022-07-19T05:41:34;5.97;;;5.37;;
5937;SDS011;2994;51.220;4.412;2022-07-19T05:43:59;6.30;;;5.70;;
5937;SDS011;2994;51.220;4.412;2022-07-19T05:46:25;6.53;;;5.93;;
5937;SDS011;2994;51.220;4.412;2022-07-19T05:48:51;6.87;;;5.63;;
5937;SDS011;2994;51.220;4.412;2022-07-19T05:51:16;6.80;;;6.20;;
5937;SDS011;2994;51.220;4.412;2022-07-19T05:53:42;7.93;;;5.80;;
5937;SDS011;2994;51.220;4.412;2022-07-19T05:56:09;6.77;;;5.77;;
5937;SDS011;2994;51.220;4.412;2022-07-19T05:58:35;6.57;;;5.77;;
5937;SDS011;2994;51.220;4.412;2022-07-19T06:01:02;6.40;;;5.87;;
5937;SDS011;2994;51.220;4.412;2022-07-19T06:03:44;6.40;;;5.80;;
5937;SDS011;2994;51.220;4.412;2022-07-19T06:06:20;6.67;;;5.80;;
5937;SDS011;2994;51.220;4.412;2022-07-19T06:08:46;5.97;;;5.47;;
5937;SDS011;2994;51.220;4.412;2022-07-19T06:11:13;5.53;;;5.03;;
5937;SDS011;2994;51.220;4.412;2022-07-19T06:13:39;6.10;;;5.60;;
5937;SDS011;2994;51.220;4.412;2022-07-19T06:16:05;6.83;;;5.77;;
5937;SDS011;2994;51.220;4.412;2022-07-19T06:18:31;5.90;;;5.40;;
5937;SDS011;2994;51.220;4.412;2022-07-19T06:21:00;6.83;;;5.63;;
5937;SDS011;2994;51.220;4.412;2022-07-19T06:23:26;5.47;;;4.97;;
5937;SDS011;2994;51.220;4.412;2022-07-19T06:25:52;7.47;;;5.20;;
5937;SDS011;2994;51.220;4.412;2022-07-19T06:28:17;5.53;;;4.70;;
5937;SDS011;2994;51.220;4.412;2022-07-19T06:30:43;5.90;;;5.40;;
5937;SDS011;2994;51.220;4.412;2022-07-19T06:33:08;6.60;;;5.40;;
5937;SDS011;2994;51.220;4.412;2022-07-19T06:35:33;5.10;;;4.50;;
5937;SDS011;2994;51.220;4.412;2022-07-19T06:37:59;5.57;;;5.07;;
5937;SDS011;2994;51.220;4.412;2022-07-19T06:40:24;7.10;;;5.37;;
5937;SDS011;2994;51.220;4.412;2022-07-19T06:42:50;5.13;;;4.73;;
5937;SDS011;2994;51.220;4.412;2022-07-19T06:45:15;5.27;;;4.77;;
5937;SDS011;2994;51.220;4.412;2022-07-19T06:47:41;5.47;;;4.97;;
5937;SDS011;2994;51.220;4.412;2022-07-19T06:50:06;6.73;;;6.03;;
5937;SDS011;2994;51.220;4.412;2022-07-19T06:52:32;5.97;;;5.40;;
5937;SDS011;2994;51.220;4.412;2022-07-19T06:54:57;5.67;;;4.80;;
5937;SDS011;2994;51.220;4.412;2022-07-19T06:57:23;5.80;;;5.30;;
5937;SDS011;2994;51.220;4.412;2022-07-19T06:59:48;6.50;;;5.30;;
5937;SDS011;2994;51.220;4.412;2022-07-19T07:02:13;5.63;;;5.20;;
5937;SDS011;2994;51.220;4.412;2022-07-19T07:04:39;4.80;;;4.40;;
5937;SDS011;2994;51.220;4.412;2022-07-19T07:07:04;9.23;;;5.77;;
5937;SDS011;2994;51.220;4.412;2022-07-19T07:09:30;6.60;;;5.10;;
5937;SDS011;2994;51.220;4.412;2022-07-19T07:11:55;8.00;;;4.90;;
5937;SDS011;2994;51.220;4.412;2022-07-19T07:14:21;6.07;;;5.00;;
5937;SDS011;2994;51.220;4.412;2022-07-19T07:16:46;5.30;;;4.80;;
5937;SDS011;2994;51.220;4.412;2022-07-19T07:19:11;5.23;;;4.27;;
5937;SDS011;2994;51.220;4.412;2022-07-19T07:21:37;5.63;;;5.10;;
5937;SDS011;2994;51.220;4.412;2022-07-19T07:24:03;6.30;;;4.67;;
5937;SDS011;2994;51.220;4.412;2022-07-19T07:26:29;5.03;;;4.63;;
5937;SDS011;2994;51.220;4.412;2022-07-19T07:28:55;4.77;;;4.23;;
5937;SDS011;2994;51.220;4.412;2022-07-19T07:31:20;9.63;;;4.50;;
5937;SDS011;2994;51.220;4.412;2022-07-19T07:33:46;4.80;;;4.40;;
5937;SDS011;2994;51.220;4.412;2022-07-19T07:36:11;5.00;;;4.60;;
5937;SDS011;2994;51.220;4.412;2022-07-19T07:38:37;5.20;;;4.70;;
5937;SDS011;2994;51.220;4.412;2022-07-19T07:41:03;6.30;;;5.60;;
5937;SDS011;2994;51.220;4.412;2022-07-19T07:43:29;6.90;;;4.07;;
5937;SDS011;2994;51.220;4.412;2022-07-19T07:45:55;8.90;;;5.33;;
5937;SDS011;2994;51.220;4.412;2022-07-19T07:48:20;5.33;;;4.80;;
5937;SDS011;2994;51.220;4.412;2022-07-19T07:50:46;5.53;;;4.07;;
5937;SDS011;2994;51.220;4.412;2022-07-19T07:53:12;4.90;;;4.23;;
5937;SDS011;2994;51.220;4.412;2022-07-19T07:55:37;5.77;;;4.07;;
5937;SDS011;2994;51.220;4.412;2022-07-19T07:58:05;5.10;;;4.23;;
5937;SDS011;2994;51.220;4.412;2022-07-19T08:00:32;6.90;;;4.57;;
5937;SDS011;2994;51.220;4.412;2022-07-19T08:02:58;6.53;;;4.50;;
5937;SDS011;2994;51.220;4.412;2022-07-19T08:05:23;5.43;;;4.63;;
5937;SDS011;2994;51.220;4.412;2022-07-19T08:07:49;4.57;;;4.27;;
5937;SDS011;2994;51.220;4.412;2022-07-19T08:10:14;4.27;;;3.87;;
5937;SDS011;2994;51.220;4.412;2022-07-19T08:12:40;9.17;;;4.93;;
5937;SDS011;2994;51.220;4.412;2022-07-19T08:15:06;4.30;;;3.97;;
5937;SDS011;2994;51.220;4.412;2022-07-19T08:17:32;4.30;;;3.87;;
5937;SDS011;2994;51.220;4.412;2022-07-19T08:19:57;6.83;;;4.50;;
5937;SDS011;2994;51.220;4.412;2022-07-19T08:22:23;4.47;;;3.93;;
5937;SDS011;2994;51.220;4.412;2022-07-19T08:24:49;5.43;;;4.93;;
5937;SDS011;2994;51.220;4.412;2022-07-19T08:27:14;6.80;;;4.27;;
5937;SDS011;2994;51.220;4.412;2022-07-19T08:29:40;3.97;;;3.63;;
5937;SDS011;2994;51.220;4.412;2022-07-19T08:32:05;6.93;;;4.93;;
5937;SDS011;2994;51.220;4.412;2022-07-19T08:34:31;7.00;;;4.13;;
5937;SDS011;2994;51.220;4.412;2022-07-19T08:36:56;8.23;;;4.43;;
5937;SDS011;2994;51.220;4.412;2022-07-19T08:39:22;6.23;;;4.63;;
5937;SDS011;2994;51.220;4.412;2022-07-19T08:41:47;4.87;;;4.47;;
5937;SDS011;2994;51.220;4.412;2022-07-19T08:44:13;5.27;;;4.77;;
5937;SDS011;2994;51.220;4.412;2022-07-19T08:46:39;5.70;;;4.20;;
5937;SDS011;2994;51.220;4.412;2022-07-19T08:49:06;6.83;;;4.27;;
5937;SDS011;2994;51.220;4.412;2022-07-19T08:51:33;4.07;;;3.77;;
5937;SDS011;2994;51.220;4.412;2022-07-19T08:53:59;5.23;;;4.60;;
5937;SDS011;2994;51.220;4.412;2022-07-19T08:56:26;4.80;;;4.40;;
5937;SDS011;2994;51.220;4.412;2022-07-19T08:59:10;5.20;;;4.57;;
5937;SDS011;2994;51.220;4.412;2022-07-19T09:01:36;4.83;;;4.43;;
5937;SDS011;2994;51.220;4.412;2022-07-19T09:04:02;4.17;;;3.77;;
5937;SDS011;2994;51.220;4.412;2022-07-19T09:06:38;5.80;;;4.07;;
5937;SDS011;2994;51.220;4.412;2022-07-19T09:09:05;5.00;;;4.63;;
5937;SDS011;2994;51.220;4.412;2022-07-19T09:11:32;4.87;;;4.47;;
5937;SDS011;2994;51.220;4.412;2022-07-19T09:14:03;5.30;;;4.67;;
5937;SDS011;2994;51.220;4.412;2022-07-19T09:16:48;5.73;;;4.80;;
5937;SDS011;2994;51.220;4.412;2022-07-19T09:19:14;4.80;;;4.23;;
5937;SDS011;2994;51.220;4.412;2022-07-19T09:24:21;6.47;;;4.20;;
5937;SDS011;2994;51.220;4.412;2022-07-19T09:29:23;5.97;;;3.93;;
5937;SDS011;2994;51.220;4.412;2022-07-19T09:31:59;5.50;;;4.73;;
5937;SDS011;2994;51.220;4.412;2022-07-19T09:34:36;4.00;;;3.67;;
5937;SDS011;2994;51.220;4.412;2022-07-19T09:37:14;6.10;;;5.50;;
5937;SDS011;2994;51.220;4.412;2022-07-19T09:39:43;4.07;;;3.77;;
5937;SDS011;2994;51.220;4.412;2022-07-19T09:42:12;5.53;;;4.50;;
5937;SDS011;2994;51.220;4.412;2022-07-19T09:44:56;6.63;;;4.37;;
5937;SDS011;2994;51.220;4.412;2022-07-19T09:47:29;5.77;;;4.73;;
5937;SDS011;2994;51.220;4.412;2022-07-19T09:49:59;4.43;;;4.13;;
5937;SDS011;2994;51.220;4.412;2022-07-19T09:52:25;4.70;;;4.30;;
5937;SDS011;2994;51.220;4.412;2022-07-19T09:54:52;6.73;;;5.27;;
5937;SDS011;2994;51.220;4.412;2022-07-19T09:57:20;5.20;;;4.57;;
5937;SDS011;2994;51.220;4.412;2022-07-19T09:59:49;6.77;;;4.83;;
5937;SDS011;2994;51.220;4.412;2022-07-19T10:02:17;4.90;;;4.50;;
5937;SDS011;2994;51.220;4.412;2022-07-19T10:04:46;4.77;;;4.30;;
5937;SDS011;2994;51.220;4.412;2022-07-19T10:07:12;4.87;;;3.83;;
5937;SDS011;2994;51.220;4.412;2022-07-19T10:09:38;5.00;;;4.20;;
5937;SDS011;2994;51.220;4.412;2022-07-19T10:12:04;4.50;;;4.07;;
5937;SDS011;2994;51.220;4.412;2022-07-19T10:14:30;4.23;;;3.93;;
5937;SDS011;2994;51.220;4.412;2022-07-19T10:17:18;4.33;;;3.90;;
5937;SDS011;2994;51.220;4.412;2022-07-19T10:19:52;6.00;;;4.20;;
5937;SDS011;2994;51.220;4.412;2022-07-19T10:22:20;6.60;;;5.27;;
5937;SDS011;2994;51.220;4.412;2022-07-19T10:29:49;4.73;;;4.23;;
5937;SDS011;2994;51.220;4.412;2022-07-19T10:32:41;7.20;;;5.40;;
5937;SDS011;2994;51.220;4.412;2022-07-19T10:43:16;6.03;;;5.23;;
5937;SDS011;2994;51.220;4.412;2022-07-19T10:46:07;6.03;;;4.70;;
5937;SDS011;2994;51.220;4.412;2022-07-19T10:48:38;5.20;;;4.40;;
5937;SDS011;2994;51.220;4.412;2022-07-19T10:51:04;5.03;;;4.27;;
5937;SDS011;2994;51.220;4.412;2022-07-19T10:56:14;4.37;;;3.83;;
5937;SDS011;2994;51.220;4.412;2022-07-19T11:01:16;6.53;;;4.80;;
5937;SDS011;2994;51.220;4.412;2022-07-19T11:03:44;5.20;;;3.87;;
5937;SDS011;2994;51.220;4.412;2022-07-19T11:06:21;5.03;;;4.27;;
5937;SDS011;2994;51.220;4.412;2022-07-19T11:08:51;5.70;;;3.93;;
5937;SDS011;2994;51.220;4.412;2022-07-19T11:11:21;5.73;;;4.30;;
5937;SDS011;2994;51.220;4.412;2022-07-19T11:13:49;4.50;;;4.07;;
5937;SDS011;2994;51.220;4.412;2022-07-19T11:16:20;7.13;;;4.03;;
5937;SDS011;2994;51.220;4.412;2022-07-19T11:18:49;6.83;;;4.17;;
5937;SDS011;2994;51.220;4.412;2022-07-19T11:21:15;4.87;;;4.00;;
5937;SDS011;2994;51.220;4.412;2022-07-19T11:23:41;3.90;;;3.47;;
5937;SDS011;2994;51.220;4.412;2022-07-19T11:26:15;4.90;;;4.40;;
5937;SDS011;2994;51.220;4.412;2022-07-19T11:28:48;4.67;;;4.27;;
5937;SDS011;2994;51.220;4.412;2022-07-19T11:31:16;5.33;;;4.10;;
5937;SDS011;2994;51.220;4.412;2022-07-19T11:33:46;4.43;;;3.70;;
5937;SDS011;2994;51.220;4.412;2022-07-19T11:36:13;4.03;;;3.73;;
5937;SDS011;2994;51.220;4.412;2022-07-19T11:41:17;6.40;;;4.70;;
5937;SDS011;2994;51.220;4.412;2022-07-19T11:43:52;9.83;;;5.10;;
5937;SDS011;2994;51.220;4.412;2022-07-19T11:46:22;7.27;;;5.23;;
5937;SDS011;2994;51.220;4.412;2022-07-19T11:48:49;5.07;;;4.57;;
5937;SDS011;2994;51.220;4.412;2022-07-19T11:51:20;5.30;;;4.77;;
5937;SDS011;2994;51.220;4.412;2022-07-19T11:53:47;6.30;;;4.17;;
5937;SDS011;2994;51.220;4.412;2022-07-19T11:56:16;4.37;;;3.73;;
5937;SDS011;2994;51.220;4.412;2022-07-19T11:58:53;5.20;;;4.00;;
5937;SDS011;2994;51.220;4.412;2022-07-19T12:01:30;6.73;;;4.40;;
5937;SDS011;2994;51.220;4.412;2022-07-19T12:04:01;3.90;;;3.60;;
5937;SDS011;2994;51.220;4.412;2022-07-19T12:09:15;4.57;;;3.90;;
5937;SDS011;2994;51.220;4.412;2022-07-19T12:11:53;4.93;;;4.10;;
5937;SDS011;2994;51.220;4.412;2022-07-19T12:14:21;4.73;;;4.33;;
5937;SDS011;2994;51.220;4.412;2022-07-19T12:16:47;4.83;;;4.30;;
5937;SDS011;2994;51.220;4.412;2022-07-19T12:19:14;5.87;;;5.27;;
5937;SDS011;2994;51.220;4.412;2022-07-19T12:21:42;4.93;;;4.53;;
5937;SDS011;2994;51.220;4.412;2022-07-19T12:24:16;4.20;;;3.80;;
5937;SDS011;2994;51.220;4.412;2022-07-19T12:27:05;4.60;;;3.97;;
5937;SDS011;2994;51.220;4.412;2022-07-19T12:32:06;4.30;;;3.70;;
5937;SDS011;2994;51.220;4.412;2022-07-19T12:37:18;3.23;;;2.90;;
5937;SDS011;2994;51.220;4.412;2022-07-19T12:42:55;6.73;;;3.50;;
5937;SDS011;2994;51.220;4.412;2022-07-19T12:45:26;5.50;;;4.00;;
5937;SDS011;2994;51.220;4.412;2022-07-19T12:47:57;3.60;;;3.30;;
5937;SDS011;2994;51.220;4.412;2022-07-19T12:50:25;5.30;;;3.20;;
5937;SDS011;2994;51.220;4.412;2022-07-19T12:52:51;4.20;;;3.50;;
5937;SDS011;2994;51.220;4.412;2022-07-19T12:55:18;5.77;;;4.00;;
5937;SDS011;2994;51.220;4.412;2022-07-19T12:57:45;6.07;;;3.47;;
5937;SDS011;2994;51.220;4.412;2022-07-19T13:00:12;4.93;;;3.17;;
5937;SDS011;2994;51.220;4.412;2022-07-19T13:02:38;6.00;;;3.67;;
5937;SDS011;2994;51.220;4.412;2022-07-19T13:05:04;4.40;;;3.33;;
5937;SDS011;2994;51.220;4.412;2022-07-19T13:07:30;4.83;;;3.50;;
5937;SDS011;2994;51.220;4.412;2022-07-19T13:09:55;3.40;;;3.10;;
5937;SDS011;2994;51.220;4.412;2022-07-19T13:12:20;4.33;;;3.93;;
5937;SDS011;2994;51.220;4.412;2022-07-19T13:14:46;6.73;;;3.87;;
5937;SDS011;2994;51.220;4.412;2022-07-19T13:17:11;4.30;;;3.90;;
5937;SDS011;2994;51.220;4.412;2022-07-19T13:19:38;4.60;;;4.20;;
5937;SDS011;2994;51.220;4.412;2022-07-19T13:22:04;4.53;;;3.90;;
5937;SDS011;2994;51.220;4.412;2022-07-19T13:24:30;7.10;;;4.10;;
5937;SDS011;2994;51.220;4.412;2022-07-19T13:26:56;7.73;;;4.00;;
5937;SDS011;2994;51.220;4.412;2022-07-19T13:29:21;6.00;;;4.43;;
5937;SDS011;2994;51.220;4.412;2022-07-19T13:31:47;5.13;;;4.63;;
5937;SDS011;2994;51.220;4.412;2022-07-19T13:34:13;4.30;;;3.90;;
5937;SDS011;2994;51.220;4.412;2022-07-19T13:36:38;5.70;;;3.90;;
5937;SDS011;2994;51.220;4.412;2022-07-19T13:39:04;5.27;;;4.80;;
5937;SDS011;2994;51.220;4.412;2022-07-19T13:41:30;4.60;;;3.80;;
5937;SDS011;2994;51.220;4.412;2022-07-19T13:43:55;6.30;;;4.80;;
5937;SDS011;2994;51.220;4.412;2022-07-19T13:46:21;5.20;;;4.70;;
5937;SDS011;2994;51.220;4.412;2022-07-19T13:48:46;4.53;;;4.17;;
5937;SDS011;2994;51.220;4.412;2022-07-19T13:51:12;5.13;;;4.73;;
5937;SDS011;2994;51.220;4.412;2022-07-19T13:53:38;6.73;;;4.10;;
5937;SDS011;2994;51.220;4.412;2022-07-19T13:56:04;7.20;;;4.10;;
5937;SDS011;2994;51.220;4.412;2022-07-19T13:58:30;4.87;;;4.47;;
5937;SDS011;2994;51.220;4.412;2022-07-19T14:00:56;4.20;;;3.80;;
5937;SDS011;2994;51.220;4.412;2022-07-19T14:03:22;4.70;;;4.30;;
5937;SDS011;2994;51.220;4.412;2022-07-19T14:05:47;5.10;;;4.43;;
5937;SDS011;2994;51.220;4.412;2022-07-19T14:08:14;4.37;;;4.07;;
5937;SDS011;2994;51.220;4.412;2022-07-19T14:10:40;5.70;;;5.20;;
5937;SDS011;2994;51.220;4.412;2022-07-19T14:13:06;4.77;;;4.37;;
5937;SDS011;2994;51.220;4.412;2022-07-19T14:15:32;6.17;;;4.37;;
5937;SDS011;2994;51.220;4.412;2022-07-19T14:17:57;7.03;;;5.03;;
5937;SDS011;2994;51.220;4.412;2022-07-19T14:20:23;4.80;;;4.30;;
5937;SDS011;2994;51.220;4.412;2022-07-19T14:22:50;4.70;;;3.93;;
5937;SDS011;2994;51.220;4.412;2022-07-19T14:25:15;5.07;;;4.40;;
5937;SDS011;2994;51.220;4.412;2022-07-19T14:27:40;5.60;;;5.10;;
5937;SDS011;2994;51.220;4.412;2022-07-19T14:30:06;5.67;;;4.60;;
5937;SDS011;2994;51.220;4.412;2022-07-19T14:32:32;4.97;;;3.93;;
5937;SDS011;2994;51.220;4.412;2022-07-19T14:34:57;5.00;;;4.60;;
5937;SDS011;2994;51.220;4.412;2022-07-19T14:37:23;5.07;;;4.57;;
5937;SDS011;2994;51.220;4.412;2022-07-19T14:39:49;4.90;;;4.40;;
5937;SDS011;2994;51.220;4.412;2022-07-19T14:42:14;4.87;;;4.43;;
5937;SDS011;2994;51.220;4.412;2022-07-19T14:44:40;5.43;;;4.90;;
5937;SDS011;2994;51.220;4.412;2022-07-19T14:47:06;5.30;;;4.83;;
5937;SDS011;2994;51.220;4.412;2022-07-19T14:49:33;4.70;;;4.30;;
5937;SDS011;2994;51.220;4.412;2022-07-19T14:52:02;5.47;;;4.90;;
5937;SDS011;2994;51.220;4.412;2022-07-19T14:54:28;5.60;;;5.13;;
5937;SDS011;2994;51.220;4.412;2022-07-19T14:56:53;5.83;;;4.57;;
5937;SDS011;2994;51.220;4.412;2022-07-19T14:59:19;6.50;;;4.20;;
5937;SDS011;2994;51.220;4.412;2022-07-19T15:01:46;5.13;;;4.57;;
5937;SDS011;2994;51.220;4.412;2022-07-19T15:04:12;7.27;;;4.87;;
5937;SDS011;2994;51.220;4.412;2022-07-19T15:06:38;4.87;;;4.40;;
5937;SDS011;2994;51.220;4.412;2022-07-19T15:09:03;5.47;;;4.90;;
5937;SDS011;2994;51.220;4.412;2022-07-19T15:11:29;5.20;;;4.80;;
5937;SDS011;2994;51.220;4.412;2022-07-19T15:13:57;7.57;;;5.47;;
5937;SDS011;2994;51.220;4.412;2022-07-19T15:16:26;5.70;;;4.20;;
5937;SDS011;2994;51.220;4.412;2022-07-19T15:18:52;4.57;;;4.27;;
5937;SDS011;2994;51.220;4.412;2022-07-19T15:21:17;4.73;;;4.33;;
5937;SDS011;2994;51.220;4.412;2022-07-19T15:23:43;5.87;;;4.73;;
5937;SDS011;2994;51.220;4.412;2022-07-19T15:26:08;5.43;;;4.47;;
5937;SDS011;2994;51.220;4.412;2022-07-19T15:28:34;4.87;;;4.50;;
5937;SDS011;2994;51.220;4.412;2022-07-19T15:31:01;5.70;;;5.20;;
5937;SDS011;2994;51.220;4.412;2022-07-19T15:33:27;6.10;;;5.10;;
5937;SDS011;2994;51.220;4.412;2022-07-19T15:35:54;5.17;;;4.77;;
5937;SDS011;2994;51.220;4.412;2022-07-19T15:38:19;6.10;;;5.60;;
5937;SDS011;2994;51.220;4.412;2022-07-19T15:40:45;5.93;;;5.40;;
5937;SDS011;2994;51.220;4.412;2022-07-19T15:43:10;6.50;;;5.97;;
5937;SDS011;2994;51.220;4.412;2022-07-19T15:45:36;6.90;;;6.40;;
5937;SDS011;2994;51.220;4.412;2022-07-19T15:48:01;9.30;;;8.60;;
5937;SDS011;2994;51.220;4.412;2022-07-19T15:50:26;9.73;;;8.97;;